Hanover, Illinois
Current Conditions -  °F | °C
As of 5:55 AM on Friday 31 Oct 2014 (Local Time) from KSFY Reporting Station
Broken Clouds Broken Clouds  
Wind Chill: 23°   Ceiling: 4000
Heat Index: 35°   Visibility: 10mi
Dew Point: 20°   Wind: 23mph
Humidity: 55%   Direction: 340°NNW
Pressure: 30.21"   Gusts: 32mph
Location:  42.26°N, 90.28°W
Report Text: KSFY 311055Z AUTO 34020G28KT 10SM BKN040 02/M07 A3021 RMK AO2 T00171066
Loading
Personal Weather Stations






























Interactive Weather Map New forecast layout! Learn more

10-Day Weather Forecast

Advertisements
Track Severe Weather on mobile